sensor_id;sensor_type;location;lat;lon;timestamp;temperature;humidity
19813;DHT22;10066;48.108;11.448;2022-12-29T00:01:41;3.00;99.90
19813;DHT22;10066;48.108;11.448;2022-12-29T00:04:12;3.00;99.90
19813;DHT22;10066;48.108;11.448;2022-12-29T00:06:39;3.00;99.90
19813;DHT22;10066;48.108;11.448;2022-12-29T00:09:05;3.10;99.90
19813;DHT22;10066;48.108;11.448;2022-12-29T00:11:34;3.00;99.90
19813;DHT22;10066;48.108;11.448;2022-12-29T00:14:01;3.00;99.90
19813;DHT22;10066;48.108;11.448;2022-12-29T00:16:45;3.00;99.90
19813;DHT22;10066;48.108;11.448;2022-12-29T00:19:12;3.00;99.90
19813;DHT22;10066;48.108;11.448;2022-12-29T00:21:53;3.00;99.90
19813;DHT22;10066;48.108;11.448;2022-12-29T00:24:37;3.00;99.90
19813;DHT22;10066;48.108;11.448;2022-12-29T00:27:23;3.00;99.90
19813;DHT22;10066;48.108;11.448;2022-12-29T00:30:09;3.00;99.90
19813;DHT22;10066;48.108;11.448;2022-12-29T00:32:54;3.10;99.90
19813;DHT22;10066;48.108;11.448;2022-12-29T00:35:42;3.00;99.90
19813;DHT22;10066;48.108;11.448;2022-12-29T00:38:10;3.10;99.90
19813;DHT22;10066;48.108;11.448;2022-12-29T00:40:55;3.10;99.90
19813;DHT22;10066;48.108;11.448;2022-12-29T00:43:41;3.10;99.90
19813;DHT22;10066;48.108;11.448;2022-12-29T00:46:25;3.10;99.90
19813;DHT22;10066;48.108;11.448;2022-12-29T00:48:52;3.10;99.90
19813;DHT22;10066;48.108;11.448;2022-12-29T00:51:36;3.10;99.90
19813;DHT22;10066;48.108;11.448;2022-12-29T00:54:03;3.10;99.90
19813;DHT22;10066;48.108;11.448;2022-12-29T00:56:30;3.10;99.90
19813;DHT22;10066;48.108;11.448;2022-12-29T00:59:01;3.10;99.90
19813;DHT22;10066;48.108;11.448;2022-12-29T01:01:29;3.00;99.90
19813;DHT22;10066;48.108;11.448;2022-12-29T01:03:56;3.00;99.90
19813;DHT22;10066;48.108;11.448;2022-12-29T01:06:23;3.00;99.90
19813;DHT22;10066;48.108;11.448;2022-12-29T01:08:51;3.00;99.90
19813;DHT22;10066;48.108;11.448;2022-12-29T01:11:32;3.00;99.90
19813;DHT22;10066;48.108;11.448;2022-12-29T01:14:00;2.90;99.90
19813;DHT22;10066;48.108;11.448;2022-12-29T01:16:27;2.90;99.90
19813;DHT22;10066;48.108;11.448;2022-12-29T01:18:55;2.90;99.90
19813;DHT22;10066;48.108;11.448;2022-12-29T01:21:22;2.90;99.90
19813;DHT22;10066;48.108;11.448;2022-12-29T01:23:49;2.80;99.90
19813;DHT22;10066;48.108;11.448;2022-12-29T01:26:19;2.80;99.90
19813;DHT22;10066;48.108;11.448;2022-12-29T01:28:46;2.80;99.90
19813;DHT22;10066;48.108;11.448;2022-12-29T01:31:15;2.80;99.90
19813;DHT22;10066;48.108;11.448;2022-12-29T01:33:45;2.70;99.90
19813;DHT22;10066;48.108;11.448;2022-12-29T01:36:15;2.70;99.90
19813;DHT22;10066;48.108;11.448;2022-12-29T01:38:42;2.70;99.90
19813;DHT22;10066;48.108;11.448;2022-12-29T01:41:11;2.70;99.90
19813;DHT22;10066;48.108;11.448;2022-12-29T01:43:40;2.70;99.90
19813;DHT22;10066;48.108;11.448;2022-12-29T01:46:18;2.80;99.90
19813;DHT22;10066;48.108;11.448;2022-12-29T01:48:51;2.80;99.90
19813;DHT22;10066;48.108;11.448;2022-12-29T01:51:20;2.90;99.90
19813;DHT22;10066;48.108;11.448;2022-12-29T01:53:48;3.00;99.90
19813;DHT22;10066;48.108;11.448;2022-12-29T01:56:17;3.00;99.90
19813;DHT22;10066;48.108;11.448;2022-12-29T01:58:48;3.10;99.90
19813;DHT22;10066;48.108;11.448;2022-12-29T02:01:20;3.10;99.90
19813;DHT22;10066;48.108;11.448;2022-12-29T02:03:49;3.10;99.90
19813;DHT22;10066;48.108;11.448;2022-12-29T02:06:21;3.20;99.90
19813;DHT22;10066;48.108;11.448;2022-12-29T02:08:50;3.20;99.90
19813;DHT22;10066;48.108;11.448;2022-12-29T02:11:19;3.10;99.90
19813;DHT22;10066;48.108;11.448;2022-12-29T02:13:47;3.20;99.90
19813;DHT22;10066;48.108;11.448;2022-12-29T02:16:25;3.20;99.90
19813;DHT22;10066;48.108;11.448;2022-12-29T02:19:05;3.20;99.90
19813;DHT22;10066;48.108;11.448;2022-12-29T02:21:56;3.30;99.90
19813;DHT22;10066;48.108;11.448;2022-12-29T02:28:14;3.30;99.90
19813;DHT22;10066;48.108;11.448;2022-12-29T02:30:54;3.30;99.90
19813;DHT22;10066;48.108;11.448;2022-12-29T02:33:36;3.30;99.90
19813;DHT22;10066;48.108;11.448;2022-12-29T02:36:12;3.30;99.90
19813;DHT22;10066;48.108;11.448;2022-12-29T02:38:53;3.40;99.90
19813;DHT22;10066;48.108;11.448;2022-12-29T02:41:26;3.40;99.90
19813;DHT22;10066;48.108;11.448;2022-12-29T02:43:59;3.40;99.90
19813;DHT22;10066;48.108;11.448;2022-12-29T02:46:34;3.50;99.90
19813;DHT22;10066;48.108;11.448;2022-12-29T02:49:09;3.60;99.90
19813;DHT22;10066;48.108;11.448;2022-12-29T02:51:45;3.60;99.90
19813;DHT22;10066;48.108;11.448;2022-12-29T02:54:16;3.70;99.90
19813;DHT22;10066;48.108;11.448;2022-12-29T02:57:01;3.70;99.90
19813;DHT22;10066;48.108;11.448;2022-12-29T02:59:28;3.70;99.90
19813;DHT22;10066;48.108;11.448;2022-12-29T03:02:13;3.70;99.90
19813;DHT22;10066;48.108;11.448;2022-12-29T03:07:51;3.70;99.90
19813;DHT22;10066;48.108;11.448;2022-12-29T03:10:31;3.70;99.90
19813;DHT22;10066;48.108;11.448;2022-12-29T03:13:04;3.70;99.90
19813;DHT22;10066;48.108;11.448;2022-12-29T03:15:55;3.80;99.90
19813;DHT22;10066;48.108;11.448;2022-12-29T03:18:38;3.80;99.90
19813;DHT22;10066;48.108;11.448;2022-12-29T03:21:11;3.90;99.90
19813;DHT22;10066;48.108;11.448;2022-12-29T03:23:41;4.00;99.90
19813;DHT22;10066;48.108;11.448;2022-12-29T03:26:11;4.10;99.90
19813;DHT22;10066;48.108;11.448;2022-12-29T03:28:43;4.20;99.90
19813;DHT22;10066;48.108;11.448;2022-12-29T03:31:12;4.20;99.90
19813;DHT22;10066;48.108;11.448;2022-12-29T03:33:41;4.30;99.90
19813;DHT22;10066;48.108;11.448;2022-12-29T03:36:14;4.40;99.90
19813;DHT22;10066;48.108;11.448;2022-12-29T03:38:46;4.50;99.90
19813;DHT22;10066;48.108;11.448;2022-12-29T03:41:18;4.60;99.90
19813;DHT22;10066;48.108;11.448;2022-12-29T03:43:47;4.70;99.90
19813;DHT22;10066;48.108;11.448;2022-12-29T03:46:14;4.90;99.90
19813;DHT22;10066;48.108;11.448;2022-12-29T03:48:42;5.00;99.90
19813;DHT22;10066;48.108;11.448;2022-12-29T03:51:09;5.10;99.90
19813;DHT22;10066;48.108;11.448;2022-12-29T03:53:36;5.20;99.90
19813;DHT22;10066;48.108;11.448;2022-12-29T03:56:04;5.30;99.90
19813;DHT22;10066;48.108;11.448;2022-12-29T03:58:31;5.30;99.90
19813;DHT22;10066;48.108;11.448;2022-12-29T04:00:58;5.40;99.90
19813;DHT22;10066;48.108;11.448;2022-12-29T04:03:25;5.50;99.90
19813;DHT22;10066;48.108;11.448;2022-12-29T04:05:53;5.60;99.90
19813;DHT22;10066;48.108;11.448;2022-12-29T04:08:20;5.60;99.90
19813;DHT22;10066;48.108;11.448;2022-12-29T04:10:48;5.70;99.90
19813;DHT22;10066;48.108;11.448;2022-12-29T04:13:15;5.70;99.90
19813;DHT22;10066;48.108;11.448;2022-12-29T04:15:42;5.80;99.90
19813;DHT22;10066;48.108;11.448;2022-12-29T04:18:10;5.90;99.90
19813;DHT22;10066;48.108;11.448;2022-12-29T04:20:38;6.00;99.90
19813;DHT22;10066;48.108;11.448;2022-12-29T04:23:36;6.00;99.90
19813;DHT22;10066;48.108;11.448;2022-12-29T04:26:04;6.10;99.90
19813;DHT22;10066;48.108;11.448;2022-12-29T04:28:32;6.10;99.90
19813;DHT22;10066;48.108;11.448;2022-12-29T04:30:59;6.20;99.90
19813;DHT22;10066;48.108;11.448;2022-12-29T04:33:27;6.20;99.90
19813;DHT22;10066;48.108;11.448;2022-12-29T04:35:54;6.20;99.90
19813;DHT22;10066;48.108;11.448;2022-12-29T04:38:21;6.30;99.90
19813;DHT22;10066;48.108;11.448;2022-12-29T04:40:51;6.30;99.90
19813;DHT22;10066;48.108;11.448;2022-12-29T04:43:18;6.40;99.90
19813;DHT22;10066;48.108;11.448;2022-12-29T04:45:45;6.40;99.90
19813;DHT22;10066;48.108;11.448;2022-12-29T04:48:13;6.40;99.90
19813;DHT22;10066;48.108;11.448;2022-12-29T04:53:08;6.50;99.90
19813;DHT22;10066;48.108;11.448;2022-12-29T04:55:35;6.50;99.90
19813;DHT22;10066;48.108;11.448;2022-12-29T04:58:03;6.50;99.90
19813;DHT22;10066;48.108;11.448;2022-12-29T05:00:30;6.50;99.90
19813;DHT22;10066;48.108;11.448;2022-12-29T05:02:57;6.60;99.90
19813;DHT22;10066;48.108;11.448;2022-12-29T05:05:24;6.60;99.90
19813;DHT22;10066;48.108;11.448;2022-12-29T05:07:51;6.60;99.90
19813;DHT22;10066;48.108;11.448;2022-12-29T05:10:18;6.60;99.90
19813;DHT22;10066;48.108;11.448;2022-12-29T05:12:45;6.60;99.90
19813;DHT22;10066;48.108;11.448;2022-12-29T05:15:14;6.60;99.90
19813;DHT22;10066;48.108;11.448;2022-12-29T05:17:41;6.70;99.90
19813;DHT22;10066;48.108;11.448;2022-12-29T05:20:08;6.60;99.90
19813;DHT22;10066;48.108;11.448;2022-12-29T05:22:36;6.60;99.90
19813;DHT22;10066;48.108;11.448;2022-12-29T05:25:03;6.70;99.90
19813;DHT22;10066;48.108;11.448;2022-12-29T05:27:30;6.70;99.90
19813;DHT22;10066;48.108;11.448;2022-12-29T05:29:57;6.70;99.90
19813;DHT22;10066;48.108;11.448;2022-12-29T05:32:25;6.70;99.90
19813;DHT22;10066;48.108;11.448;2022-12-29T05:34:52;6.70;99.90
19813;DHT22;10066;48.108;11.448;2022-12-29T05:37:19;6.70;99.90
19813;DHT22;10066;48.108;11.448;2022-12-29T05:40:02;6.60;99.90
19813;DHT22;10066;48.108;11.448;2022-12-29T05:42:30;6.60;99.90
19813;DHT22;10066;48.108;11.448;2022-12-29T05:44:57;6.60;99.90
19813;DHT22;10066;48.108;11.448;2022-12-29T05:47:25;6.60;99.90
19813;DHT22;10066;48.108;11.448;2022-12-29T05:49:52;6.60;99.90
19813;DHT22;10066;48.108;11.448;2022-12-29T05:52:19;6.60;99.90
19813;DHT22;10066;48.108;11.448;2022-12-29T05:54:46;6.60;99.90
19813;DHT22;10066;48.108;11.448;2022-12-29T05:57:13;6.60;99.90
19813;DHT22;10066;48.108;11.448;2022-12-29T05:59:40;6.60;99.90
19813;DHT22;10066;48.108;11.448;2022-12-29T06:02:07;6.60;99.90
19813;DHT22;10066;48.108;11.448;2022-12-29T06:04:35;6.60;99.90
19813;DHT22;10066;48.108;11.448;2022-12-29T06:07:02;6.60;99.90
19813;DHT22;10066;48.108;11.448;2022-12-29T06:09:29;6.60;99.90
19813;DHT22;10066;48.108;11.448;2022-12-29T06:11:56;6.50;99.90
19813;DHT22;10066;48.108;11.448;2022-12-29T06:14:23;6.50;99.90
19813;DHT22;10066;48.108;11.448;2022-12-29T06:16:50;6.50;99.90
19813;DHT22;10066;48.108;11.448;2022-12-29T06:19:17;6.50;99.90
19813;DHT22;10066;48.108;11.448;2022-12-29T06:21:45;6.50;99.90
19813;DHT22;10066;48.108;11.448;2022-12-29T06:24:12;6.50;99.90
19813;DHT22;10066;48.108;11.448;2022-12-29T06:26:40;6.50;99.90
19813;DHT22;10066;48.108;11.448;2022-12-29T06:29:08;6.50;99.90
19813;DHT22;10066;48.108;11.448;2022-12-29T06:31:35;6.50;99.90
19813;DHT22;10066;48.108;11.448;2022-12-29T06:34:02;6.50;99.90
19813;DHT22;10066;48.108;11.448;2022-12-29T06:36:29;6.40;99.90
19813;DHT22;10066;48.108;11.448;2022-12-29T06:38:57;6.40;99.90
19813;DHT22;10066;48.108;11.448;2022-12-29T06:41:24;6.40;99.90
19813;DHT22;10066;48.108;11.448;2022-12-29T06:43:51;6.40;99.90
19813;DHT22;10066;48.108;11.448;2022-12-29T06:46:18;6.40;99.90
19813;DHT22;10066;48.108;11.448;2022-12-29T06:48:44;6.30;99.90
19813;DHT22;10066;48.108;11.448;2022-12-29T06:51:11;6.30;99.90
19813;DHT22;10066;48.108;11.448;2022-12-29T06:53:38;6.30;99.90
19813;DHT22;10066;48.108;11.448;2022-12-29T06:56:07;6.30;99.90
19813;DHT22;10066;48.108;11.448;2022-12-29T06:58:34;6.30;99.90
19813;DHT22;10066;48.108;11.448;2022-12-29T07:01:02;6.30;99.90
19813;DHT22;10066;48.108;11.448;2022-12-29T07:03:29;6.30;99.90
19813;DHT22;10066;48.108;11.448;2022-12-29T07:05:56;6.40;99.90
19813;DHT22;10066;48.108;11.448;2022-12-29T07:08:24;6.40;99.90
19813;DHT22;10066;48.108;11.448;2022-12-29T07:10:50;6.40;99.90
19813;DHT22;10066;48.108;11.448;2022-12-29T07:13:19;6.40;99.90
19813;DHT22;10066;48.108;11.448;2022-12-29T07:15:46;6.40;99.90
19813;DHT22;10066;48.108;11.448;2022-12-29T07:18:13;6.40;99.90
19813;DHT22;10066;48.108;11.448;2022-12-29T07:20:39;6.30;99.90
19813;DHT22;10066;48.108;11.448;2022-12-29T07:23:08;6.30;99.90
19813;DHT22;10066;48.108;11.448;2022-12-29T07:25:35;6.30;99.90
19813;DHT22;10066;48.108;11.448;2022-12-29T07:28:02;6.40;99.90
19813;DHT22;10066;48.108;11.448;2022-12-29T07:30:30;6.30;99.90
19813;DHT22;10066;48.108;11.448;2022-12-29T07:32:57;6.40;99.90
19813;DHT22;10066;48.108;11.448;2022-12-29T07:35:24;6.40;99.90
19813;DHT22;10066;48.108;11.448;2022-12-29T07:37:51;6.40;99.90
19813;DHT22;10066;48.108;11.448;2022-12-29T07:40:18;6.50;99.90
19813;DHT22;10066;48.108;11.448;2022-12-29T07:42:45;6.50;99.90
19813;DHT22;10066;48.108;11.448;2022-12-29T07:45:12;6.50;99.90
19813;DHT22;10066;48.108;11.448;2022-12-29T07:47:40;6.50;99.90
19813;DHT22;10066;48.108;11.448;2022-12-29T07:50:07;6.40;99.90
19813;DHT22;10066;48.108;11.448;2022-12-29T07:52:35;6.40;99.90
19813;DHT22;10066;48.108;11.448;2022-12-29T07:55:02;6.40;99.90
19813;DHT22;10066;48.108;11.448;2022-12-29T07:57:29;6.40;99.90
19813;DHT22;10066;48.108;11.448;2022-12-29T07:59:56;6.40;99.90
19813;DHT22;10066;48.108;11.448;2022-12-29T08:02:23;6.40;99.90
19813;DHT22;10066;48.108;11.448;2022-12-29T08:04:53;6.40;99.90
19813;DHT22;10066;48.108;11.448;2022-12-29T08:07:20;6.40;99.90
19813;DHT22;10066;48.108;11.448;2022-12-29T08:09:47;6.40;99.90
19813;DHT22;10066;48.108;11.448;2022-12-29T08:12:14;6.40;99.90
19813;DHT22;10066;48.108;11.448;2022-12-29T08:14:41;6.50;99.90
19813;DHT22;10066;48.108;11.448;2022-12-29T08:17:08;6.60;99.90
19813;DHT22;10066;48.108;11.448;2022-12-29T08:19:35;6.60;99.90
19813;DHT22;10066;48.108;11.448;2022-12-29T08:22:04;6.60;99.90
19813;DHT22;10066;48.108;11.448;2022-12-29T08:24:31;6.60;99.90
19813;DHT22;10066;48.108;11.448;2022-12-29T08:26:57;6.60;99.90
19813;DHT22;10066;48.108;11.448;2022-12-29T08:29:24;6.70;99.90
19813;DHT22;10066;48.108;11.448;2022-12-29T08:31:51;6.70;99.90
19813;DHT22;10066;48.108;11.448;2022-12-29T08:34:18;6.70;99.90
19813;DHT22;10066;48.108;11.448;2022-12-29T08:36:45;6.70;99.90
19813;DHT22;10066;48.108;11.448;2022-12-29T08:39:13;6.70;99.90
19813;DHT22;10066;48.108;11.448;2022-12-29T08:41:40;6.70;99.90
19813;DHT22;10066;48.108;11.448;2022-12-29T08:44:11;6.70;99.90
19813;DHT22;10066;48.108;11.448;2022-12-29T08:46:38;6.70;99.90
19813;DHT22;10066;48.108;11.448;2022-12-29T08:49:05;6.80;99.90
19813;DHT22;10066;48.108;11.448;2022-12-29T08:51:32;6.90;99.90
19813;DHT22;10066;48.108;11.448;2022-12-29T08:53:59;7.00;99.90
19813;DHT22;10066;48.108;11.448;2022-12-29T08:56:27;7.20;99.90
19813;DHT22;10066;48.108;11.448;2022-12-29T08:58:54;7.40;99.90
19813;DHT22;10066;48.108;11.448;2022-12-29T09:01:22;7.50;99.90
19813;DHT22;10066;48.108;11.448;2022-12-29T09:03:49;7.70;99.90
19813;DHT22;10066;48.108;11.448;2022-12-29T09:06:16;7.80;99.90
19813;DHT22;10066;48.108;11.448;2022-12-29T09:08:44;7.80;99.90
19813;DHT22;10066;48.108;11.448;2022-12-29T09:11:14;7.90;99.90
19813;DHT22;10066;48.108;11.448;2022-12-29T09:13:42;7.90;99.90
19813;DHT22;10066;48.108;11.448;2022-12-29T09:16:10;7.90;99.90
19813;DHT22;10066;48.108;11.448;2022-12-29T09:18:37;7.90;99.90
19813;DHT22;10066;48.108;11.448;2022-12-29T09:21:05;7.90;99.90
19813;DHT22;10066;48.108;11.448;2022-12-29T09:23:33;8.00;99.90
19813;DHT22;10066;48.108;11.448;2022-12-29T09:26:02;8.00;99.90
19813;DHT22;10066;48.108;11.448;2022-12-29T09:28:30;8.00;99.90
19813;DHT22;10066;48.108;11.448;2022-12-29T09:30:58;8.10;99.90
19813;DHT22;10066;48.108;11.448;2022-12-29T09:33:26;8.20;99.90
19813;DHT22;10066;48.108;11.448;2022-12-29T09:35:54;8.30;99.90
19813;DHT22;10066;48.108;11.448;2022-12-29T09:38:22;8.30;99.90
19813;DHT22;10066;48.108;11.448;2022-12-29T09:40:52;8.40;99.90
19813;DHT22;10066;48.108;11.448;2022-12-29T09:43:36;8.60;99.90
19813;DHT22;10066;48.108;11.448;2022-12-29T09:46:17;8.70;99.90
19813;DHT22;10066;48.108;11.448;2022-12-29T09:48:55;8.90;99.90
19813;DHT22;10066;48.108;11.448;2022-12-29T09:51:23;9.10;99.90
19813;DHT22;10066;48.108;11.448;2022-12-29T09:53:55;9.30;99.90
19813;DHT22;10066;48.108;11.448;2022-12-29T09:56:25;9.60;99.90
19813;DHT22;10066;48.108;11.448;2022-12-29T09:58:57;9.90;99.90
19813;DHT22;10066;48.108;11.448;2022-12-29T10:03:59;10.20;99.90
19813;DHT22;10066;48.108;11.448;2022-12-29T10:06:33;10.30;99.90
19813;DHT22;10066;48.108;11.448;2022-12-29T10:09:04;10.40;99.90
19813;DHT22;10066;48.108;11.448;2022-12-29T10:11:51;10.50;99.90
19813;DHT22;10066;48.108;11.448;2022-12-29T10:14:33;10.60;99.90
19813;DHT22;10066;48.108;11.448;2022-12-29T10:17:06;10.70;99.90
19813;DHT22;10066;48.108;11.448;2022-12-29T10:19:52;10.70;99.90
19813;DHT22;10066;48.108;11.448;2022-12-29T10:22:32;10.80;99.90
19813;DHT22;10066;48.108;11.448;2022-12-29T10:25:11;10.90;99.90
19813;DHT22;10066;48.108;11.448;2022-12-29T10:27:39;10.90;99.90
19813;DHT22;10066;48.108;11.448;2022-12-29T10:30:11;10.90;99.90
19813;DHT22;10066;48.108;11.448;2022-12-29T10:32:41;11.00;99.90
19813;DHT22;10066;48.108;11.448;2022-12-29T10:35:16;11.00;99.90
19813;DHT22;10066;48.108;11.448;2022-12-29T10:37:49;11.00;99.90
19813;DHT22;10066;48.108;11.448;2022-12-29T10:40:23;11.00;99.90
19813;DHT22;10066;48.108;11.448;2022-12-29T10:42:53;11.00;99.90
19813;DHT22;10066;48.108;11.448;2022-12-29T10:45:22;11.00;99.90
19813;DHT22;10066;48.108;11.448;2022-12-29T10:47:54;11.00;99.90
19813;DHT22;10066;48.108;11.448;2022-12-29T10:50:25;11.00;99.90
19813;DHT22;10066;48.108;11.448;2022-12-29T10:52:53;11.00;99.90
19813;DHT22;10066;48.108;11.448;2022-12-29T10:55:24;11.00;99.90
19813;DHT22;10066;48.108;11.448;2022-12-29T10:57:56;11.00;99.90
19813;DHT22;10066;48.108;11.448;2022-12-29T11:00:26;11.00;99.90
19813;DHT22;10066;48.108;11.448;2022-12-29T11:03:08;10.90;99.90
19813;DHT22;10066;48.108;11.448;2022-12-29T11:05:41;10.90;95.70
19813;DHT22;10066;48.108;11.448;2022-12-29T11:08:15;10.90;98.60
19813;DHT22;10066;48.108;11.448;2022-12-29T11:10:44;11.00;99.90
19813;DHT22;10066;48.108;11.448;2022-12-29T11:13:15;11.10;97.80
19813;DHT22;10066;48.108;11.448;2022-12-29T11:15:44;11.10;99.90
19813;DHT22;10066;48.108;11.448;2022-12-29T11:18:20;11.20;99.30
19813;DHT22;10066;48.108;11.448;2022-12-29T11:20:50;11.20;93.50
19813;DHT22;10066;48.108;11.448;2022-12-29T11:23:30;11.30;97.60
19813;DHT22;10066;48.108;11.448;2022-12-29T11:26:15;11.50;95.00
19813;DHT22;10066;48.108;11.448;2022-12-29T11:28:45;11.60;94.30
19813;DHT22;10066;48.108;11.448;2022-12-29T11:31:16;11.80;97.30
19813;DHT22;10066;48.108;11.448;2022-12-29T11:33:44;12.00;96.40
19813;DHT22;10066;48.108;11.448;2022-12-29T11:36:16;12.10;96.80
19813;DHT22;10066;48.108;11.448;2022-12-29T11:38:48;12.30;97.70
19813;DHT22;10066;48.108;11.448;2022-12-29T11:41:20;12.40;95.00
19813;DHT22;10066;48.108;11.448;2022-12-29T11:43:49;12.50;93.80
19813;DHT22;10066;48.108;11.448;2022-12-29T11:46:23;12.60;95.50
19813;DHT22;10066;48.108;11.448;2022-12-29T11:48:51;12.70;90.90
19813;DHT22;10066;48.108;11.448;2022-12-29T11:51:27;12.70;93.00
19813;DHT22;10066;48.108;11.448;2022-12-29T11:53:57;12.80;91.90
19813;DHT22;10066;48.108;11.448;2022-12-29T11:56:34;12.80;86.90
19813;DHT22;10066;48.108;11.448;2022-12-29T11:59:40;12.80;88.70
19813;DHT22;10066;48.108;11.448;2022-12-29T12:02:29;12.70;85.70
19813;DHT22;10066;48.108;11.448;2022-12-29T12:05:03;12.70;87.20
19813;DHT22;10066;48.108;11.448;2022-12-29T12:07:39;12.70;90.70
19813;DHT22;10066;48.108;11.448;2022-12-29T12:10:15;12.70;87.80
19813;DHT22;10066;48.108;11.448;2022-12-29T12:12:47;12.70;91.30
19813;DHT22;10066;48.108;11.448;2022-12-29T12:15:19;12.60;90.10
19813;DHT22;10066;48.108;11.448;2022-12-29T12:17:51;12.60;91.50
19813;DHT22;10066;48.108;11.448;2022-12-29T12:20:22;12.50;90.60
19813;DHT22;10066;48.108;11.448;2022-12-29T12:22:59;12.50;90.70
19813;DHT22;10066;48.108;11.448;2022-12-29T12:25:34;12.50;84.90
19813;DHT22;10066;48.108;11.448;2022-12-29T12:28:10;12.40;83.40
19813;DHT22;10066;48.108;11.448;2022-12-29T12:30:43;12.40;87.50
19813;DHT22;10066;48.108;11.448;2022-12-29T12:33:17;12.40;87.90
19813;DHT22;10066;48.108;11.448;2022-12-29T12:35:51;12.40;88.40
19813;DHT22;10066;48.108;11.448;2022-12-29T12:38:29;12.40;89.10
19813;DHT22;10066;48.108;11.448;2022-12-29T12:41:08;12.40;85.10
19813;DHT22;10066;48.108;11.448;2022-12-29T12:43:45;12.50;91.40
19813;DHT22;10066;48.108;11.448;2022-12-29T12:49:52;12.50;86.00
19813;DHT22;10066;48.108;11.448;2022-12-29T12:52:31;12.50;86.30
19813;DHT22;10066;48.108;11.448;2022-12-29T12:55:33;12.50;86.60
19813;DHT22;10066;48.108;11.448;2022-12-29T12:58:09;12.50;82.30
19813;DHT22;10066;48.108;11.448;2022-12-29T13:00:47;12.60;89.50
19813;DHT22;10066;48.108;11.448;2022-12-29T13:03:22;12.50;88.00
19813;DHT22;10066;48.108;11.448;2022-12-29T13:06:07;12.50;87.40
19813;DHT22;10066;48.108;11.448;2022-12-29T13:08:57;12.50;83.40
19813;DHT22;10066;48.108;11.448;2022-12-29T13:11:35;12.50;90.50
19813;DHT22;10066;48.108;11.448;2022-12-29T13:14:15;12.50;91.00
19813;DHT22;10066;48.108;11.448;2022-12-29T13:16:49;12.40;89.50
19813;DHT22;10066;48.108;11.448;2022-12-29T13:19:25;12.40;90.50
19813;DHT22;10066;48.108;11.448;2022-12-29T13:22:01;12.40;90.80
19813;DHT22;10066;48.108;11.448;2022-12-29T13:24:40;12.40;90.30
19813;DHT22;10066;48.108;11.448;2022-12-29T13:27:16;12.30;88.60
19813;DHT22;10066;48.108;11.448;2022-12-29T13:29:50;12.40;90.20
19813;DHT22;10066;48.108;11.448;2022-12-29T13:32:27;12.30;88.70
19813;DHT22;10066;48.108;11.448;2022-12-29T13:35:08;12.30;91.90
19813;DHT22;10066;48.108;11.448;2022-12-29T13:37:45;12.30;91.00
19813;DHT22;10066;48.108;11.448;2022-12-29T13:40:16;12.30;92.00
19813;DHT22;10066;48.108;11.448;2022-12-29T13:42:46;12.30;92.30
19813;DHT22;10066;48.108;11.448;2022-12-29T13:45:17;12.30;92.80
19813;DHT22;10066;48.108;11.448;2022-12-29T13:47:48;12.30;93.10
19813;DHT22;10066;48.108;11.448;2022-12-29T13:50:21;12.30;91.90
19813;DHT22;10066;48.108;11.448;2022-12-29T13:52:52;12.20;92.60
19813;DHT22;10066;48.108;11.448;2022-12-29T13:55:27;12.20;92.90
19813;DHT22;10066;48.108;11.448;2022-12-29T13:58:03;12.20;93.10
19813;DHT22;10066;48.108;11.448;2022-12-29T14:00:38;12.20;92.40
19813;DHT22;10066;48.108;11.448;2022-12-29T14:03:20;12.10;94.40
19813;DHT22;10066;48.108;11.448;2022-12-29T14:06:05;12.10;93.50
19813;DHT22;10066;48.108;11.448;2022-12-29T14:08:34;12.10;94.20
19813;DHT22;10066;48.108;11.448;2022-12-29T14:11:07;12.00;94.10
19813;DHT22;10066;48.108;11.448;2022-12-29T14:13:39;12.00;93.70
19813;DHT22;10066;48.108;11.448;2022-12-29T14:16:08;11.90;94.10
19813;DHT22;10066;48.108;11.448;2022-12-29T14:18:42;11.80;94.10
19813;DHT22;10066;48.108;11.448;2022-12-29T14:21:18;11.80;93.90
19813;DHT22;10066;48.108;11.448;2022-12-29T14:23:49;11.70;93.60
19813;DHT22;10066;48.108;11.448;2022-12-29T14:26:18;11.70;94.00
19813;DHT22;10066;48.108;11.448;2022-12-29T14:29:22;11.60;94.50
19813;DHT22;10066;48.108;11.448;2022-12-29T14:32:37;11.60;93.70
19813;DHT22;10066;48.108;11.448;2022-12-29T14:35:37;11.50;93.20
19813;DHT22;10066;48.108;11.448;2022-12-29T14:38:07;11.50;94.00
19813;DHT22;10066;48.108;11.448;2022-12-29T14:40:34;11.40;95.10
19813;DHT22;10066;48.108;11.448;2022-12-29T14:43:12;11.40;94.90
19813;DHT22;10066;48.108;11.448;2022-12-29T14:45:41;11.40;94.50
19813;DHT22;10066;48.108;11.448;2022-12-29T14:48:31;11.30;94.20
19813;DHT22;10066;48.108;11.448;2022-12-29T14:50:59;11.20;93.70
19813;DHT22;10066;48.108;11.448;2022-12-29T14:53:44;11.20;94.30
19813;DHT22;10066;48.108;11.448;2022-12-29T14:56:14;11.10;92.50
19813;DHT22;10066;48.108;11.448;2022-12-29T14:58:53;11.00;94.00
19813;DHT22;10066;48.108;11.448;2022-12-29T15:01:26;11.00;94.30
19813;DHT22;10066;48.108;11.448;2022-12-29T15:04:00;10.90;94.60
19813;DHT22;10066;48.108;11.448;2022-12-29T15:06:30;10.90;94.40
19813;DHT22;10066;48.108;11.448;2022-12-29T15:09:02;10.90;94.70
19813;DHT22;10066;48.108;11.448;2022-12-29T15:11:43;10.80;94.90
19813;DHT22;10066;48.108;11.448;2022-12-29T15:14:32;10.80;94.20
19813;DHT22;10066;48.108;11.448;2022-12-29T15:17:00;10.70;94.10
19813;DHT22;10066;48.108;11.448;2022-12-29T15:19:29;10.60;94.90
19813;DHT22;10066;48.108;11.448;2022-12-29T15:21:56;10.60;94.80
19813;DHT22;10066;48.108;11.448;2022-12-29T15:24:24;10.50;94.40
19813;DHT22;10066;48.108;11.448;2022-12-29T15:26:53;10.40;93.80
19813;DHT22;10066;48.108;11.448;2022-12-29T15:29:36;10.40;94.60
19813;DHT22;10066;48.108;11.448;2022-12-29T15:32:19;10.30;93.90
19813;DHT22;10066;48.108;11.448;2022-12-29T15:34:50;10.20;94.20
19813;DHT22;10066;48.108;11.448;2022-12-29T15:37:22;10.10;95.60
19813;DHT22;10066;48.108;11.448;2022-12-29T15:39:50;10.00;94.90
19813;DHT22;10066;48.108;11.448;2022-12-29T15:42:45;10.00;95.10
19813;DHT22;10066;48.108;11.448;2022-12-29T15:45:15;9.90;95.70
19813;DHT22;10066;48.108;11.448;2022-12-29T15:47:44;9.80;96.00
19813;DHT22;10066;48.108;11.448;2022-12-29T15:50:23;9.70;95.90
19813;DHT22;10066;48.108;11.448;2022-12-29T15:52:52;9.60;95.40
19813;DHT22;10066;48.108;11.448;2022-12-29T15:55:28;9.50;95.80
19813;DHT22;10066;48.108;11.448;2022-12-29T15:57:57;9.50;95.90
19813;DHT22;10066;48.108;11.448;2022-12-29T16:00:27;9.50;96.20
19813;DHT22;10066;48.108;11.448;2022-12-29T16:02:55;9.40;96.50
19813;DHT22;10066;48.108;11.448;2022-12-29T16:05:32;9.40;95.90
19813;DHT22;10066;48.108;11.448;2022-12-29T16:08:00;9.30;96.30
19813;DHT22;10066;48.108;11.448;2022-12-29T16:10:31;9.30;96.80